createdAt,value
2023-09-02T00:00:27.443Z,7.50
2023-09-02T00:03:14.210Z,7.13
2023-09-02T00:05:41.782Z,6.67
2023-09-02T00:08:08.540Z,12.43
2023-09-02T00:10:35.792Z,7.77
2023-09-02T00:13:04.326Z,10.70
2023-09-02T00:15:31.415Z,10.00
2023-09-02T00:17:58.203Z,9.30
2023-09-02T00:20:25.397Z,11.20
2023-09-02T00:22:52.279Z,7.03
2023-09-02T00:25:19.350Z,12.97
2023-09-02T00:27:46.097Z,9.47
2023-09-02T00:30:13.654Z,9.50
2023-09-02T00:32:40.450Z,10.87
2023-09-02T00:35:08.042Z,14.27
2023-09-02T00:37:34.866Z,8.50
2023-09-02T00:40:02.140Z,10.80
2023-09-02T00:42:31.282Z,9.67
2023-09-02T00:44:58.433Z,9.93
2023-09-02T00:47:25.252Z,9.07
2023-09-02T00:49:53.514Z,10.27
2023-09-02T00:52:20.957Z,12.80
2023-09-02T00:54:48.178Z,11.33
2023-09-02T00:57:15.039Z,10.27
2023-09-02T00:59:42.273Z,10.13
2023-09-02T01:02:09.989Z,9.80
2023-09-02T01:04:37.540Z,9.47
2023-09-02T01:07:04.628Z,10.30
2023-09-02T01:09:32.367Z,10.83
2023-09-02T01:11:59.193Z,9.20
2023-09-02T01:14:26.451Z,9.07
2023-09-02T01:16:53.912Z,13.00
2023-09-02T01:19:21.451Z,11.03
2023-09-02T01:22:06.932Z,8.90
2023-09-02T01:25:12.770Z,14.20
2023-09-02T01:27:44.859Z,11.27
2023-09-02T01:30:26.205Z,12.03
2023-09-02T01:32:55.277Z,9.70
2023-09-02T01:35:29.040Z,11.50
2023-09-02T01:37:58.051Z,13.40
2023-09-02T01:40:27.807Z,10.40
2023-09-02T01:42:58.136Z,10.40
2023-09-02T01:45:35.810Z,9.63
2023-09-02T01:48:04.463Z,12.33
2023-09-02T01:50:34.780Z,9.43
2023-09-02T01:53:03.285Z,11.13
2023-09-02T01:55:30.604Z,10.93
2023-09-02T01:57:58.166Z,12.03
2023-09-02T02:00:25.251Z,10.20
2023-09-02T02:02:55.708Z,10.50
2023-09-02T02:05:46.857Z,11.73
2023-09-02T02:08:20.611Z,10.47
2023-09-02T02:10:49.409Z,11.20
2023-09-02T02:13:16.556Z,10.10
2023-09-02T02:15:43.872Z,12.20
2023-09-02T02:18:10.719Z,12.80
2023-09-02T02:20:51.426Z,12.83
2023-09-02T02:23:18.503Z,12.20
2023-09-02T02:25:45.760Z,9.87
2023-09-02T02:28:12.613Z,13.43
2023-09-02T02:30:39.649Z,18.83
2023-09-02T02:33:06.755Z,10.00
2023-09-02T02:35:34.109Z,12.03
2023-09-02T02:38:01.049Z,11.70
2023-09-02T02:40:28.664Z,11.27
2023-09-02T02:42:55.724Z,14.87
2023-09-02T02:45:22.802Z,11.23
2023-09-02T02:47:49.695Z,10.17
2023-09-02T02:50:16.919Z,9.40
2023-09-02T02:52:44.399Z,11.63
2023-09-02T02:55:11.543Z,7.93
2023-09-02T02:57:38.528Z,9.87
2023-09-02T03:00:09.635Z,9.60
2023-09-02T03:02:36.849Z,9.23
2023-09-02T03:05:04.255Z,11.30
2023-09-02T03:07:31.149Z,10.00
2023-09-02T03:09:58.237Z,14.23
2023-09-02T03:12:25.046Z,10.70
2023-09-02T03:14:52.869Z,9.33
2023-09-02T03:17:22.283Z,12.83
2023-09-02T03:19:51.274Z,12.10
2023-09-02T03:22:18.248Z,10.67
2023-09-02T03:24:47.573Z,9.53
2023-09-02T03:27:14.421Z,9.47
2023-09-02T03:29:41.676Z,10.77
2023-09-02T03:32:08.480Z,8.57
2023-09-02T03:34:35.572Z,11.23
2023-09-02T03:37:02.708Z,8.40
2023-09-02T03:39:32.203Z,11.37
2023-09-02T03:41:59.061Z,10.07
2023-09-02T03:44:26.141Z,9.03
2023-09-02T03:46:53.220Z,11.53
2023-09-02T03:49:20.657Z,11.33
2023-09-02T03:51:47.551Z,9.67
2023-09-02T03:54:15.046Z,10.53
2023-09-02T03:56:43.108Z,9.43
2023-09-02T03:59:10.354Z,8.80
2023-09-02T04:01:37.237Z,13.23
2023-09-02T04:04:05.176Z,12.00
2023-09-02T04:06:33.525Z,8.97
2023-09-02T04:09:00.579Z,11.23
2023-09-02T04:11:27.365Z,11.47
2023-09-02T04:13:54.419Z,8.90
2023-09-02T04:16:21.242Z,11.00
2023-09-02T04:18:48.486Z,9.90
2023-09-02T04:21:15.336Z,10.20
2023-09-02T04:23:44.914Z,10.10
2023-09-02T04:26:15.852Z,10.67
2023-09-02T04:28:43.121Z,10.93
2023-09-02T04:31:11.041Z,11.40
2023-09-02T04:33:38.444Z,11.07
2023-09-02T04:36:06.737Z,9.13
2023-09-02T04:38:38.643Z,9.40
2023-09-02T04:41:07.589Z,10.60
2023-09-02T04:43:39.032Z,9.53
2023-09-02T04:46:09.607Z,8.63
2023-09-02T04:48:39.811Z,8.33
2023-09-02T04:51:09.514Z,9.17
2023-09-02T04:53:38.264Z,10.03
2023-09-02T04:56:06.502Z,9.27
2023-09-02T04:58:35.990Z,10.50
2023-09-02T05:01:09.888Z,8.77
2023-09-02T05:03:38.787Z,13.00
2023-09-02T05:06:09.193Z,10.53
2023-09-02T05:08:39.088Z,11.80
2023-09-02T05:11:06.331Z,13.07
2023-09-02T05:13:33.416Z,12.30
2023-09-02T05:16:00.299Z,11.20
2023-09-02T05:18:28.419Z,11.67
2023-09-02T05:20:56.574Z,10.48
2023-09-02T05:23:24.231Z,12.87
2023-09-02T05:25:59.610Z,16.30
2023-09-02T05:28:26.840Z,11.00
2023-09-02T05:30:58.036Z,10.77
2023-09-02T05:33:25.142Z,12.67
2023-09-02T05:35:53.126Z,12.07
2023-09-02T05:38:20.213Z,14.38
2023-09-02T05:40:47.019Z,14.30
2023-09-02T05:43:14.047Z,10.40
2023-09-02T05:45:41.078Z,10.10
2023-09-02T05:48:09.009Z,11.05
2023-09-02T05:50:36.096Z,13.73
2023-09-02T05:53:03.302Z,15.10
2023-09-02T05:55:30.199Z,9.85
2023-09-02T05:57:57.206Z,11.43
2023-09-02T06:00:24.106Z,13.95
2023-09-02T06:02:51.216Z,11.70
2023-09-02T06:05:18.555Z,10.80
2023-09-02T06:07:45.786Z,10.23
2023-09-02T06:10:12.676Z,7.85
2023-09-02T06:12:39.740Z,9.93
2023-09-02T06:15:07.024Z,8.88
2023-09-02T06:17:35.043Z,9.48
2023-09-02T06:20:02.002Z,6.60
2023-09-02T06:22:29.318Z,6.77
2023-09-02T06:24:56.361Z,10.98
2023-09-02T06:27:23.707Z,7.57
2023-09-02T06:29:50.929Z,7.45
2023-09-02T06:32:18.176Z,8.80
2023-09-02T06:34:44.969Z,10.23
2023-09-02T06:37:12.105Z,7.72
2023-09-02T06:39:38.952Z,10.40
2023-09-02T06:42:06.018Z,12.15
2023-09-02T06:44:35.467Z,9.60
2023-09-02T06:47:02.875Z,8.38
2023-09-02T06:49:32.461Z,9.07
2023-09-02T06:51:59.489Z,5.75
2023-09-02T06:54:26.615Z,7.50
2023-09-02T06:56:53.585Z,10.15
2023-09-02T06:59:20.474Z,5.78
2023-09-02T07:01:47.459Z,6.20
2023-09-02T07:04:14.304Z,8.10
2023-09-02T07:06:41.334Z,4.88
2023-09-02T07:09:08.130Z,5.13
2023-09-02T07:11:35.245Z,6.32
2023-09-02T07:14:02.056Z,8.80
2023-09-02T07:16:29.553Z,5.78
2023-09-02T07:18:56.415Z,6.03
2023-09-02T07:21:24.127Z,7.13
2023-09-02T07:23:52.712Z,4.38
2023-09-02T07:26:21.036Z,4.95
2023-09-02T07:28:47.855Z,4.15
2023-09-02T07:31:14.983Z,5.28
2023-09-02T07:33:42.918Z,6.53
2023-09-02T07:36:14.339Z,5.85
2023-09-02T07:38:42.000Z,3.78
2023-09-02T07:41:10.873Z,4.10
2023-09-02T07:43:37.938Z,5.88
2023-09-02T07:46:05.712Z,6.68
2023-09-02T07:48:32.603Z,3.30
2023-09-02T07:51:01.730Z,3.45
2023-09-02T07:53:31.601Z,4.68
2023-09-02T07:55:58.676Z,4.72
2023-09-02T07:58:25.520Z,3.40
2023-09-02T08:00:56.796Z,6.40
2023-09-02T08:03:24.224Z,4.32
2023-09-02T08:05:51.783Z,5.68
2023-09-02T08:08:18.633Z,4.07
2023-09-02T08:10:45.640Z,3.90
2023-09-02T08:13:12.489Z,5.50
2023-09-02T08:15:39.627Z,6.47
2023-09-02T08:18:07.093Z,5.47
2023-09-02T08:20:36.709Z,5.30
2023-09-02T08:23:03.907Z,6.07
2023-09-02T08:25:30.980Z,3.92
2023-09-02T08:27:57.835Z,5.60
2023-09-02T08:30:24.888Z,4.15
2023-09-02T08:32:52.893Z,6.80
2023-09-02T08:35:20.097Z,5.55
2023-09-02T08:37:47.095Z,4.47
2023-09-02T08:40:15.829Z,7.35
2023-09-02T08:42:42.895Z,6.85
2023-09-02T08:45:10.572Z,4.85
2023-09-02T08:47:40.572Z,4.22
2023-09-02T08:50:09.582Z,3.53
2023-09-02T08:52:36.859Z,4.57
2023-09-02T08:55:04.756Z,3.33
2023-09-02T08:57:31.712Z,4.93
2023-09-02T09:00:00.584Z,5.60
2023-09-02T09:02:28.602Z,4.10
2023-09-02T09:04:58.164Z,3.10
2023-09-02T09:07:26.354Z,3.30
2023-09-02T09:09:53.937Z,2.97
2023-09-02T09:12:22.599Z,2.03
2023-09-02T09:14:55.692Z,5.75
2023-09-02T09:17:23.868Z,5.30
2023-09-02T09:19:53.712Z,4.35
2023-09-02T09:22:20.525Z,1.52
2023-09-02T09:24:47.569Z,4.28
2023-09-02T09:27:14.933Z,3.42
2023-09-02T09:29:43.203Z,2.08
2023-09-02T09:32:15.313Z,2.20
2023-09-02T09:34:44.591Z,4.80
2023-09-02T09:37:12.112Z,2.45
2023-09-02T09:39:47.510Z,3.08
2023-09-02T09:42:16.381Z,2.05
2023-09-02T09:44:55.567Z,1.60
2023-09-02T09:47:23.914Z,3.97
2023-09-02T09:49:51.236Z,3.58
2023-09-02T09:52:20.867Z,1.52
2023-09-02T09:54:53.279Z,2.85
2023-09-02T09:57:36.356Z,6.70
2023-09-02T10:00:08.933Z,2.85
2023-09-02T10:02:36.102Z,2.80
2023-09-02T10:05:03.704Z,5.15
2023-09-02T10:07:33.251Z,3.03
2023-09-02T10:10:03.736Z,2.00
2023-09-02T10:12:38.207Z,4.72
2023-09-02T10:15:08.187Z,2.42
2023-09-02T10:17:36.472Z,2.65
2023-09-02T10:20:04.005Z,3.00
2023-09-02T10:22:33.154Z,2.55
2023-09-02T10:25:07.932Z,2.97
2023-09-02T10:27:41.075Z,4.80
2023-09-02T10:30:16.411Z,3.38
2023-09-02T10:32:52.088Z,2.60
2023-09-02T10:35:20.047Z,2.67
2023-09-02T10:37:57.881Z,2.15
2023-09-02T10:40:27.831Z,2.38
2023-09-02T10:42:55.847Z,3.35
2023-09-02T10:45:23.134Z,4.25
2023-09-02T10:47:51.492Z,1.77
2023-09-02T10:50:22.841Z,2.88
2023-09-02T10:53:12.228Z,3.67
2023-09-02T10:56:01.816Z,3.17
2023-09-02T10:58:45.880Z,2.65
2023-09-02T11:01:13.124Z,3.13
2023-09-02T11:03:57.901Z,32.90
2023-09-02T11:06:25.036Z,4.78
2023-09-02T11:08:53.719Z,4.60
2023-09-02T11:11:21.869Z,2.10
2023-09-02T11:14:07.076Z,5.20
2023-09-02T11:16:39.631Z,2.53
2023-09-02T11:19:10.184Z,16.05
2023-09-02T11:21:42.692Z,2.47
2023-09-02T11:24:22.958Z,5.72
2023-09-02T11:26:58.073Z,3.90
2023-09-02T11:29:26.492Z,2.30
2023-09-02T11:32:01.016Z,12.55
2023-09-02T11:34:29.436Z,2.83
2023-09-02T11:36:57.830Z,3.22
2023-09-02T11:39:33.267Z,3.03
2023-09-02T11:42:11.061Z,6.50
2023-09-02T11:44:38.133Z,2.53
2023-09-02T11:47:08.190Z,3.30
2023-09-02T11:49:36.072Z,6.88
2023-09-02T11:52:03.659Z,9.55
2023-09-02T11:54:30.570Z,4.60
2023-09-02T11:57:03.578Z,3.40
2023-09-02T11:59:31.176Z,3.75
2023-09-02T12:02:14.111Z,4.93
2023-09-02T12:04:42.376Z,19.13
2023-09-02T12:07:10.806Z,2.63
2023-09-02T12:09:38.597Z,5.25
2023-09-02T12:12:07.488Z,2.50
2023-09-02T12:14:37.190Z,3.33
2023-09-02T12:17:05.595Z,3.33
2023-09-02T12:19:33.346Z,3.75
2023-09-02T12:22:00.837Z,2.75
2023-09-02T12:24:28.490Z,3.33
2023-09-02T12:26:55.747Z,3.17
2023-09-02T12:29:25.312Z,3.65
2023-09-02T12:32:00.165Z,5.75
2023-09-02T12:34:37.779Z,10.77
2023-09-02T12:37:17.389Z,6.35
2023-09-02T12:39:44.728Z,5.85
2023-09-02T12:42:20.139Z,4.03
2023-09-02T12:44:54.848Z,2.33
2023-09-02T12:47:24.673Z,3.55
2023-09-02T12:49:56.376Z,2.85
2023-09-02T12:52:25.711Z,2.88
2023-09-02T12:54:54.634Z,3.03
2023-09-02T12:57:23.550Z,2.97
2023-09-02T12:59:50.637Z,4.05
2023-09-02T13:02:18.349Z,4.93
2023-09-02T13:04:45.236Z,3.38
2023-09-02T13:07:12.492Z,2.70
2023-09-02T13:09:41.096Z,2.90
2023-09-02T13:12:08.178Z,3.90
2023-09-02T13:14:35.046Z,3.33
2023-09-02T13:17:02.119Z,2.92
2023-09-02T13:19:30.556Z,1.95
2023-09-02T13:21:58.099Z,3.72
2023-09-02T13:24:26.553Z,4.20
2023-09-02T13:26:54.116Z,2.40
2023-09-02T13:29:24.597Z,2.63
2023-09-02T13:31:52.521Z,2.55
2023-09-02T13:34:30.762Z,5.07
2023-09-02T13:37:06.403Z,3.10
2023-09-02T13:39:33.504Z,4.18
2023-09-02T13:42:01.906Z,2.40
2023-09-02T13:44:29.032Z,2.42
2023-09-02T13:47:03.895Z,3.08
2023-09-02T13:49:30.724Z,3.08
2023-09-02T13:51:58.120Z,3.70
2023-09-02T13:54:26.769Z,1.88
2023-09-02T13:56:54.621Z,2.33
2023-09-02T13:59:24.478Z,2.95
2023-09-02T14:01:55.530Z,6.63
2023-09-02T14:04:22.380Z,7.50
2023-09-02T14:06:49.534Z,2.70
2023-09-02T14:09:24.095Z,2.63
2023-09-02T14:11:51.734Z,3.92
2023-09-02T14:14:22.442Z,4.60
2023-09-02T14:16:50.126Z,2.70
2023-09-02T14:19:17.690Z,3.72
2023-09-02T14:21:45.298Z,4.88
2023-09-02T14:24:12.094Z,1.58
2023-09-02T14:26:43.011Z,2.70
2023-09-02T14:29:10.118Z,3.08
2023-09-02T14:31:37.229Z,2.83
2023-09-02T14:34:04.216Z,2.90
2023-09-02T14:36:31.323Z,4.30
2023-09-02T14:38:58.062Z,2.85
2023-09-02T14:41:25.795Z,5.30
2023-09-02T14:43:52.861Z,5.40
2023-09-02T14:46:20.048Z,4.72
2023-09-02T14:48:46.814Z,3.30
2023-09-02T14:51:15.056Z,5.57
2023-09-02T14:53:41.915Z,4.50
2023-09-02T14:56:09.977Z,3.35
2023-09-02T14:58:36.790Z,3.17
2023-09-02T15:01:05.202Z,6.18
2023-09-02T15:03:38.343Z,3.05
2023-09-02T15:06:06.029Z,4.95
2023-09-02T15:08:34.060Z,3.42
2023-09-02T15:11:01.911Z,3.45
2023-09-02T15:13:30.551Z,2.00
2023-09-02T15:15:59.901Z,3.10
2023-09-02T15:18:29.115Z,3.97
2023-09-02T15:20:57.521Z,2.90
2023-09-02T15:23:24.416Z,2.22
2023-09-02T15:25:56.617Z,4.35
2023-09-02T15:28:23.614Z,4.45
2023-09-02T15:30:50.718Z,4.20
2023-09-02T15:33:20.885Z,4.75
2023-09-02T15:35:48.461Z,4.82
2023-09-02T15:38:18.507Z,5.00
2023-09-02T15:40:46.159Z,5.38
2023-09-02T15:43:14.426Z,1.83
2023-09-02T15:45:42.012Z,4.20
2023-09-02T15:48:09.073Z,7.00
2023-09-02T15:50:36.213Z,16.17
2023-09-02T15:53:03.160Z,7.50
2023-09-02T15:55:30.219Z,3.75
2023-09-02T15:57:57.545Z,2.95
2023-09-02T16:00:25.458Z,4.40
2023-09-02T16:02:52.429Z,3.40
2023-09-02T16:05:20.407Z,3.15
2023-09-02T16:07:51.268Z,2.83
2023-09-02T16:10:18.925Z,5.68
2023-09-02T16:12:45.792Z,3.47
2023-09-02T16:15:14.790Z,5.07
2023-09-02T16:17:41.928Z,3.95
2023-09-02T16:20:13.688Z,6.20
2023-09-02T16:22:41.150Z,3.90
2023-09-02T16:25:08.814Z,6.75
2023-09-02T16:27:35.545Z,5.13
2023-09-02T16:30:05.832Z,3.70
2023-09-02T16:32:33.524Z,3.95
2023-09-02T16:35:00.769Z,4.20
2023-09-02T16:37:28.452Z,4.22
2023-09-02T16:39:57.157Z,3.97
2023-09-02T16:42:32.335Z,4.18
2023-09-02T16:45:06.242Z,2.92
2023-09-02T16:47:46.581Z,5.00
2023-09-02T16:50:15.883Z,3.42
2023-09-02T16:52:45.063Z,4.22
2023-09-02T16:55:15.354Z,18.35
2023-09-02T16:57:44.541Z,4.55
2023-09-02T17:00:13.769Z,5.50
2023-09-02T17:02:46.365Z,6.43
2023-09-02T17:05:19.325Z,5.97
2023-09-02T17:07:47.454Z,12.25
2023-09-02T17:10:19.076Z,18.63
2023-09-02T17:12:46.158Z,12.07
2023-09-02T17:15:17.736Z,10.50
2023-09-02T17:17:53.438Z,6.53
2023-09-02T17:20:25.918Z,5.78
2023-09-02T17:22:52.884Z,7.20
2023-09-02T17:25:20.615Z,13.25
2023-09-02T17:27:49.594Z,5.80
2023-09-02T17:30:20.669Z,7.15
2023-09-02T17:32:50.548Z,7.93
2023-09-02T17:35:18.519Z,5.07
2023-09-02T17:37:46.018Z,4.78
2023-09-02T17:40:14.161Z,6.47
2023-09-02T17:42:41.889Z,4.63
2023-09-02T17:45:14.156Z,5.93
2023-09-02T17:47:41.231Z,6.88
2023-09-02T17:50:10.304Z,7.25
2023-09-02T17:52:37.293Z,7.90
2023-09-02T17:55:05.744Z,8.20
2023-09-02T17:57:32.599Z,6.22
2023-09-02T17:59:59.671Z,13.65
2023-09-02T18:02:26.928Z,10.63
2023-09-02T18:04:58.945Z,12.98
2023-09-02T18:07:26.820Z,10.98
2023-09-02T18:09:53.958Z,10.82
2023-09-02T18:12:20.819Z,10.82
2023-09-02T18:14:48.034Z,13.32
2023-09-02T18:17:15.418Z,11.80
2023-09-02T18:19:42.801Z,10.00
2023-09-02T18:22:10.195Z,9.15
2023-09-02T18:24:38.226Z,9.68
2023-09-02T18:27:05.961Z,10.73
2023-09-02T18:29:33.877Z,7.70
2023-09-02T18:32:00.884Z,9.73
2023-09-02T18:34:29.742Z,11.85
2023-09-02T18:36:56.712Z,8.73
2023-09-02T18:39:25.380Z,8.18
2023-09-02T18:41:53.133Z,5.22
2023-09-02T18:44:20.811Z,5.38
2023-09-02T18:46:50.869Z,6.07
2023-09-02T18:49:18.554Z,8.63
2023-09-02T18:51:46.021Z,9.32
2023-09-02T18:54:13.273Z,5.45
2023-09-02T18:56:40.088Z,5.15
2023-09-02T18:59:09.841Z,5.78
2023-09-02T19:01:37.674Z,6.78
2023-09-02T19:04:07.839Z,5.18
2023-09-02T19:06:36.222Z,6.35
2023-09-02T19:09:03.810Z,11.18
2023-09-02T19:11:31.055Z,11.30
2023-09-02T19:13:58.676Z,14.82
2023-09-02T19:16:26.288Z,22.13
2023-09-02T19:18:54.898Z,20.17
2023-09-02T19:21:22.867Z,28.02
2023-09-02T19:23:49.964Z,23.08
2023-09-02T19:26:17.047Z,14.32
2023-09-02T19:28:44.235Z,14.70
2023-09-02T19:31:11.131Z,23.73
2023-09-02T19:33:38.370Z,22.77
2023-09-02T19:36:05.284Z,20.70
2023-09-02T19:38:32.575Z,20.85
2023-09-02T19:40:59.485Z,12.20
2023-09-02T19:43:26.533Z,12.27
2023-09-02T19:45:55.382Z,9.98
2023-09-02T19:48:24.920Z,5.15
2023-09-02T19:50:51.684Z,6.85
2023-09-02T19:53:18.822Z,5.95
2023-09-02T19:55:47.025Z,5.00
2023-09-02T19:58:14.452Z,4.78
2023-09-02T20:00:43.425Z,8.63
2023-09-02T20:03:13.003Z,4.88
2023-09-02T20:05:40.281Z,11.82
2023-09-02T20:08:07.331Z,5.97
2023-09-02T20:10:36.073Z,7.80
2023-09-02T20:13:03.284Z,6.70
2023-09-02T20:15:30.578Z,4.40
2023-09-02T20:17:58.198Z,6.35
2023-09-02T20:20:26.808Z,5.05
2023-09-02T20:22:54.178Z,6.32
2023-09-02T20:25:21.127Z,7.65
2023-09-02T20:27:48.346Z,5.70
2023-09-02T20:30:16.701Z,6.05
2023-09-02T20:32:44.225Z,5.70
2023-09-02T20:35:12.024Z,6.13
2023-09-02T20:37:39.990Z,8.05
2023-09-02T20:40:08.816Z,8.20
2023-09-02T20:42:37.033Z,5.10
2023-09-02T20:45:04.958Z,4.72
2023-09-02T20:47:32.726Z,5.38
2023-09-02T20:50:01.237Z,4.88
2023-09-02T20:52:28.714Z,6.93
2023-09-02T20:54:55.598Z,6.70
2023-09-02T20:57:23.457Z,4.97
2023-09-02T20:59:54.082Z,3.85
2023-09-02T21:02:21.294Z,4.95
2023-09-02T21:04:48.782Z,5.63
2023-09-02T21:07:16.026Z,7.15
2023-09-02T21:09:42.924Z,7.47
2023-09-02T21:12:13.386Z,4.85
2023-09-02T21:14:41.623Z,5.85
2023-09-02T21:17:09.305Z,5.35
2023-09-02T21:19:39.772Z,4.18
2023-09-02T21:22:06.984Z,4.18
2023-09-02T21:24:33.901Z,6.72
2023-09-02T21:27:01.045Z,6.95
2023-09-02T21:29:29.654Z,8.00
2023-09-02T21:31:56.811Z,8.10
2023-09-02T21:34:23.592Z,4.68
2023-09-02T21:36:50.652Z,6.40
2023-09-02T21:39:17.701Z,9.27
2023-09-02T21:41:44.849Z,9.90
2023-09-02T21:44:11.748Z,7.70
2023-09-02T21:46:38.959Z,9.50
2023-09-02T21:49:05.828Z,10.60
2023-09-02T21:51:32.955Z,8.75
2023-09-02T21:53:59.817Z,12.75
2023-09-02T21:56:26.906Z,21.05
2023-09-02T21:58:53.833Z,30.08
2023-09-02T22:01:21.482Z,40.72
2023-09-02T22:03:48.495Z,37.15
2023-09-02T22:06:16.397Z,31.65
2023-09-02T22:08:45.485Z,27.98
2023-09-02T22:11:14.529Z,25.15
2023-09-02T22:13:44.928Z,25.23
2023-09-02T22:16:13.516Z,33.33
2023-09-02T22:18:46.396Z,30.02
2023-09-02T22:21:20.048Z,27.05
2023-09-02T22:23:46.831Z,27.83
2023-09-02T22:26:13.827Z,29.50
2023-09-02T22:28:40.661Z,38.22
2023-09-02T22:31:07.726Z,32.55
2023-09-02T22:33:35.385Z,33.40
2023-09-02T22:36:03.380Z,40.08
2023-09-02T22:38:52.033Z,30.33
2023-09-02T22:41:21.558Z,34.28
2023-09-02T22:43:48.344Z,27.48
2023-09-02T22:46:15.433Z,26.15
2023-09-02T22:48:42.457Z,23.75
2023-09-02T22:51:09.575Z,21.65
2023-09-02T22:53:36.648Z,15.40
2023-09-02T22:56:15.190Z,17.90
2023-09-02T22:58:42.479Z,19.48
2023-09-02T23:01:11.380Z,16.70
2023-09-02T23:03:38.629Z,15.23
2023-09-02T23:06:07.618Z,11.75
2023-09-02T23:08:36.245Z,10.10
2023-09-02T23:11:04.267Z,12.88
2023-09-02T23:13:31.103Z,13.45
2023-09-02T23:16:03.650Z,13.65
2023-09-02T23:18:30.708Z,11.23
2023-09-02T23:20:57.805Z,9.23
2023-09-02T23:23:24.545Z,11.60
2023-09-02T23:25:53.769Z,11.13
2023-09-02T23:28:21.777Z,11.25
2023-09-02T23:30:59.463Z,10.00
2023-09-02T23:33:26.540Z,11.45
2023-09-02T23:35:57.752Z,8.57
2023-09-02T23:38:25.387Z,11.15
2023-09-02T23:40:53.482Z,12.27
2023-09-02T23:43:21.054Z,14.10
2023-09-02T23:45:52.892Z,8.75
2023-09-02T23:48:20.883Z,9.45
2023-09-02T23:50:51.017Z,8.20
2023-09-02T23:53:18.343Z,13.40
2023-09-02T23:55:48.407Z,11.57
2023-09-02T23:58:15.903Z,16.48
